Time;durP1;ratioP1;P1;durP2;ratioP2;P2;SDS_P1;SDS_P2;PMS_P1;PMS_P2;Temp;Humidity;BMP_temperature;BMP_pressure;BME280_temperature;BME280_humidity;BME280_pressure;Samples;Min_cycle;Max_cycle;Signal;HPM_P1;HPM_P2
2023/03/01 00:01:05;;;;;;;;;24.33;22.00;;;;;;;;4982095;28;8872;-82
2023/03/01 00:03:33;;;;;;;;;19.00;17.67;;;;;;;;4975613;28;8869;-82
2023/03/01 00:06:00;;;;;;;;;20.67;19.00;;;;;;;;4983571;28;8853;-82
2023/03/01 00:08:29;;;;;;;;;20.33;20.33;;;;;;;;4981240;28;8991;-81
2023/03/01 00:11:07;;;;;;;;;27.67;25.33;;;;;;;;4982931;28;8861;-80
2023/03/01 00:13:34;;;;;;;;;27.00;19.33;;;;;;;;4977949;28;8900;-81
2023/03/01 00:16:04;;;;;;;;;28.67;27.00;;;;;;;;4978948;28;9003;-80
2023/03/01 00:18:31;;;;;;;;;35.33;29.33;;;;;;;;4984063;28;8849;-81
2023/03/01 00:20:59;;;;;;;;;27.33;25.00;;;;;;;;4983038;28;8883;-81
2023/03/01 00:23:27;;;;;;;;;24.00;21.00;;;;;;;;4982582;28;8971;-80
2023/03/01 00:25:55;;;;;;;;;33.33;23.00;;;;;;;;4988109;28;8849;-80
2023/03/01 00:28:24;;;;;;;;;23.00;21.67;;;;;;;;4987519;28;8890;-81
2023/03/01 00:30:51;;;;;;;;;24.00;19.00;;;;;;;;4993406;28;8922;-81
2023/03/01 00:33:19;;;;;;;;;19.00;19.00;;;;;;;;4984277;28;8908;-82
2023/03/01 00:35:46;;;;;;;;;23.00;21.00;;;;;;;;4987124;28;8885;-81
2023/03/01 00:38:17;;;;;;;;;26.33;22.33;;;;;;;;4979226;28;8962;-80
2023/03/01 00:40:44;;;;;;;;;21.33;17.33;;;;;;;;4987161;28;8881;-81
2023/03/01 00:43:12;;;;;;;;;23.00;21.00;;;;;;;;4983908;28;8877;-81
2023/03/01 00:45:40;;;;;;;;;22.33;20.67;;;;;;;;4988452;28;8865;-80
2023/03/01 00:48:08;;;;;;;;;25.00;20.33;;;;;;;;4989456;28;8876;-80
2023/03/01 00:50:36;;;;;;;;;24.67;21.67;;;;;;;;4992688;28;8875;-81
2023/03/01 00:53:04;;;;;;;;;25.33;22.67;;;;;;;;4996839;28;9673;-81
2023/03/01 01:01:17;;;;;;;;;30.33;27.33;;;;;;;;4993017;28;9605;-81
2023/03/01 01:03:45;;;;;;;;;21.33;18.67;;;;;;;;4993134;28;8861;-82
2023/03/01 01:06:21;;;;;;;;;21.00;21.00;;;;;;;;4997019;28;9042;-81
2023/03/01 01:08:49;;;;;;;;;21.33;20.33;;;;;;;;4989890;28;8881;-81
2023/03/01 01:11:16;;;;;;;;;21.33;18.67;;;;;;;;4990787;28;8895;-80
2023/03/01 01:13:46;;;;;;;;;24.00;20.00;;;;;;;;4991358;28;8942;-80
2023/03/01 01:16:19;;;;;;;;;28.67;21.67;;;;;;;;4991525;28;8889;-81
2023/03/01 01:18:46;;;;;;;;;28.00;26.00;;;;;;;;4987484;28;9027;-79
2023/03/01 01:21:16;;;;;;;;;24.00;21.67;;;;;;;;4981582;28;8987;-80
2023/03/01 01:23:45;;;;;;;;;25.33;21.33;;;;;;;;4984253;28;8902;-80
2023/03/01 01:26:14;;;;;;;;;24.00;21.33;;;;;;;;4990661;28;8851;-79
2023/03/01 01:28:42;;;;;;;;;24.67;24.67;;;;;;;;4986057;28;8971;-81
2023/03/01 01:31:09;;;;;;;;;25.67;24.00;;;;;;;;4994912;28;9015;-82
2023/03/01 01:33:38;;;;;;;;;22.00;19.00;;;;;;;;4991697;28;8876;-81
2023/03/01 01:36:09;;;;;;;;;21.00;19.00;;;;;;;;4994533;28;8912;-79
2023/03/01 01:38:38;;;;;;;;;31.33;24.33;;;;;;;;4995737;28;8996;-80
2023/03/01 01:41:07;;;;;;;;;27.00;23.67;;;;;;;;4990218;28;8877;-80
2023/03/01 01:43:37;;;;;;;;;30.67;25.00;;;;;;;;4998933;28;8878;-81
2023/03/01 01:46:06;;;;;;;;;20.33;20.33;;;;;;;;4995875;28;8847;-81
2023/03/01 01:48:41;;;;;;;;;17.00;17.00;;;;;;;;4994283;28;8881;-80
2023/03/01 01:51:13;;;;;;;;;15.00;15.00;;;;;;;;4989082;28;8997;-78
2023/03/01 01:53:41;;;;;;;;;21.33;21.33;;;;;;;;4989610;28;8885;-81
2023/03/01 01:56:10;;;;;;;;;24.33;22.67;;;;;;;;4987345;28;8988;-81
2023/03/01 01:58:39;;;;;;;;;23.00;23.00;;;;;;;;4993987;28;9037;-80
2023/03/01 02:01:07;;;;;;;;;21.67;21.67;;;;;;;;4994095;28;8939;-81
2023/03/01 02:03:41;;;;;;;;;20.67;20.67;;;;;;;;4990121;28;8851;-81
2023/03/01 02:06:14;;;;;;;;;19.67;19.67;;;;;;;;4997827;28;8901;-80
2023/03/01 02:08:43;;;;;;;;;17.33;15.00;;;;;;;;4989510;28;8869;-79
2023/03/01 02:11:14;;;;;;;;;24.00;22.33;;;;;;;;4996026;28;8871;-79
2023/03/01 02:13:43;;;;;;;;;23.00;23.00;;;;;;;;4996151;28;8882;-80
2023/03/01 02:16:12;;;;;;;;;20.67;20.67;;;;;;;;4991295;28;8865;-79
2023/03/01 02:18:41;;;;;;;;;14.00;14.00;;;;;;;;4990099;28;8993;-79
2023/03/01 02:21:26;;;;;;;;;21.00;21.00;;;;;;;;4992344;28;8850;-79
2023/03/01 02:23:55;;;;;;;;;31.33;28.67;;;;;;;;4994566;28;9016;-80
2023/03/01 02:26:31;;;;;;;;;20.00;19.67;;;;;;;;4993501;28;8896;-80
2023/03/01 02:29:00;;;;;;;;;24.50;23.00;;;;;;;;4996013;28;8891;-79
2023/03/01 02:31:42;;;;;;;;;27.50;26.25;;;;;;;;4994008;28;8881;-79
2023/03/01 02:34:12;;;;;;;;;25.67;25.67;;;;;;;;4991754;28;8960;-81
2023/03/01 02:36:42;;;;;;;;;22.33;22.33;;;;;;;;4990944;28;8947;-82
2023/03/01 02:39:14;;;;;;;;;28.00;28.00;;;;;;;;4991760;28;8818;-81
2023/03/01 02:41:43;;;;;;;;;25.50;25.50;;;;;;;;4989891;28;8851;-82
2023/03/01 02:44:12;;;;;;;;;25.25;25.25;;;;;;;;4999916;28;8817;-80
2023/03/01 02:46:44;;;;;;;;;25.00;25.00;;;;;;;;4986812;28;8888;-81
2023/03/01 02:49:21;;;;;;;;;24.50;24.50;;;;;;;;4974613;28;8887;-80
2023/03/01 02:52:09;;;;;;;;;22.50;22.50;;;;;;;;4982231;28;8972;-82
2023/03/01 02:54:42;;;;;;;;;24.33;22.33;;;;;;;;4981599;28;8927;-80
2023/03/01 02:57:10;;;;;;;;;23.25;22.50;;;;;;;;4984299;28;8873;-80
2023/03/01 02:59:42;;;;;;;;;22.67;22.67;;;;;;;;4985291;28;8999;-81
2023/03/01 03:02:20;;;;;;;;;24.50;23.50;;;;;;;;4987965;28;8948;-81
2023/03/01 03:04:48;;;;;;;;;27.50;27.25;;;;;;;;4983534;28;8864;-81
2023/03/01 03:07:15;;;;;;;;;30.25;27.00;;;;;;;;4984110;28;8986;-82
2023/03/01 03:09:44;;;;;;;;;30.50;30.50;;;;;;;;4985341;28;8877;-80
2023/03/01 03:12:13;;;;;;;;;31.00;31.00;;;;;;;;4991223;28;8899;-80
2023/03/01 03:14:42;;;;;;;;;35.75;33.50;;;;;;;;4982814;28;8875;-80
2023/03/01 03:17:09;;;;;;;;;33.50;33.00;;;;;;;;4993441;28;9674;-79
2023/03/01 03:19:38;;;;;;;;;25.75;25.75;;;;;;;;4996267;28;8964;-79
2023/03/01 03:22:11;;;;;;;;;38.25;36.25;;;;;;;;4981566;28;8865;-82
2023/03/01 03:24:38;;;;;;;;;32.50;32.50;;;;;;;;4986411;28;8898;-82
2023/03/01 03:27:06;;;;;;;;;34.00;34.00;;;;;;;;4990079;28;9688;-81
2023/03/01 03:29:34;;;;;;;;;33.00;33.00;;;;;;;;4988761;28;8828;-78
2023/03/01 03:32:03;;;;;;;;;50.00;46.50;;;;;;;;4989260;28;9195;-81
2023/03/01 03:34:30;;;;;;;;;34.25;31.25;;;;;;;;4990231;28;8863;-80
2023/03/01 03:36:59;;;;;;;;;34.50;34.50;;;;;;;;4989052;28;8877;-81
2023/03/01 03:39:27;;;;;;;;;51.50;46.25;;;;;;;;4984220;28;9620;-79
2023/03/01 03:41:55;;;;;;;;;47.25;44.00;;;;;;;;4989195;28;8854;-79
2023/03/01 03:44:22;;;;;;;;;75.25;61.25;;;;;;;;4992058;28;8869;-80
2023/03/01 03:46:50;;;;;;;;;64.00;53.25;;;;;;;;4992205;28;8831;-80
2023/03/01 03:49:19;;;;;;;;;35.00;30.75;;;;;;;;4978387;28;8900;-80
2023/03/01 03:51:47;;;;;;;;;45.00;43.25;;;;;;;;4985636;28;8980;-79
2023/03/01 03:54:15;;;;;;;;;38.75;37.50;;;;;;;;4992102;28;8927;-80
2023/03/01 03:56:43;;;;;;;;;32.00;32.00;;;;;;;;4985101;28;8882;-80
2023/03/01 03:59:11;;;;;;;;;33.33;33.00;;;;;;;;4991470;28;9003;-81
2023/03/01 04:01:38;;;;;;;;;30.33;30.33;;;;;;;;4993725;28;8836;-80
2023/03/01 04:04:07;;;;;;;;;46.00;42.00;;;;;;;;4993325;28;8858;-81
2023/03/01 04:06:36;;;;;;;;;26.67;26.67;;;;;;;;4988334;28;8947;-80
2023/03/01 04:09:04;;;;;;;;;35.67;34.00;;;;;;;;4993008;28;8904;-80
2023/03/01 04:11:32;;;;;;;;;32.33;30.33;;;;;;;;4990824;28;8857;-81
2023/03/01 04:14:00;;;;;;;;;37.67;36.33;;;;;;;;4995822;28;9611;-81
2023/03/01 04:16:28;;;;;;;;;42.00;40.75;;;;;;;;4990369;28;9718;-82
2023/03/01 04:18:56;;;;;;;;;32.00;32.00;;;;;;;;4985914;28;8844;-81
2023/03/01 04:21:23;;;;;;;;;37.00;35.50;;;;;;;;4986612;28;8947;-80
2023/03/01 04:23:53;;;;;;;;;39.75;37.75;;;;;;;;4991320;28;8986;-79
2023/03/01 04:26:21;;;;;;;;;41.25;41.25;;;;;;;;4992875;28;8909;-79
2023/03/01 04:28:50;;;;;;;;;42.33;37.67;;;;;;;;4991518;28;8969;-80
2023/03/01 04:31:22;;;;;;;;;40.75;40.50;;;;;;;;4990651;28;9008;-79
2023/03/01 04:33:52;;;;;;;;;47.00;44.00;;;;;;;;4990586;28;8840;-79
2023/03/01 04:36:21;;;;;;;;;33.00;31.75;;;;;;;;4992282;28;8857;-80
2023/03/01 04:38:49;;;;;;;;;46.50;43.00;;;;;;;;4983184;28;8861;-80
2023/03/01 04:41:20;;;;;;;;;52.50;45.50;;;;;;;;4985359;28;9023;-81
2023/03/01 04:43:48;;;;;;;;;47.75;44.50;;;;;;;;4981426;28;8878;-81
2023/03/01 04:46:17;;;;;;;;;52.25;45.25;;;;;;;;4979086;28;8857;-80
2023/03/01 04:48:46;;;;;;;;;62.00;52.00;;;;;;;;4981740;28;8951;-80
2023/03/01 04:51:14;;;;;;;;;64.50;55.00;;;;;;;;4980211;28;8872;-82
2023/03/01 04:53:42;;;;;;;;;62.25;52.25;;;;;;;;4982436;28;8885;-81
2023/03/01 04:56:14;;;;;;;;;53.25;46.75;;;;;;;;4982926;28;8951;-81
2023/03/01 04:58:43;;;;;;;;;56.25;45.50;;;;;;;;4991514;28;8868;-81
2023/03/01 05:01:14;;;;;;;;;49.75;44.75;;;;;;;;4990813;28;8925;-80
2023/03/01 05:03:43;;;;;;;;;48.50;44.75;;;;;;;;4989041;28;8846;-78
2023/03/01 05:06:12;;;;;;;;;41.50;41.50;;;;;;;;4981782;28;8872;-79
2023/03/01 05:08:40;;;;;;;;;35.75;35.75;;;;;;;;4993329;28;8857;-80
2023/03/01 05:11:08;;;;;;;;;36.25;36.25;;;;;;;;4984986;28;9684;-79
2023/03/01 05:13:40;;;;;;;;;45.75;44.25;;;;;;;;4985063;28;8971;-80
2023/03/01 05:16:10;;;;;;;;;40.75;40.75;;;;;;;;4977967;28;8857;-81
2023/03/01 05:18:39;;;;;;;;;38.25;37.50;;;;;;;;4983405;28;8876;-79
2023/03/01 05:21:08;;;;;;;;;43.00;42.25;;;;;;;;4979863;28;9743;-80
2023/03/01 05:23:36;;;;;;;;;35.50;34.75;;;;;;;;4985530;28;8874;-79
2023/03/01 05:26:05;;;;;;;;;39.75;39.25;;;;;;;;4977599;28;8946;-79
2023/03/01 05:28:35;;;;;;;;;37.75;36.50;;;;;;;;4983684;28;8897;-79
2023/03/01 05:31:07;;;;;;;;;38.00;38.00;;;;;;;;4987632;28;8881;-81
2023/03/01 05:33:38;;;;;;;;;50.00;44.75;;;;;;;;4986772;28;8882;-80
2023/03/01 05:36:07;;;;;;;;;47.25;43.00;;;;;;;;4974943;28;8863;-80
2023/03/01 05:38:34;;;;;;;;;37.50;35.75;;;;;;;;4987633;28;8869;-80
2023/03/01 05:41:05;;;;;;;;;39.50;38.00;;;;;;;;4981741;28;9679;-79
2023/03/01 05:43:33;;;;;;;;;40.50;39.25;;;;;;;;4983016;28;8861;-80
2023/03/01 05:46:04;;;;;;;;;43.75;42.50;;;;;;;;4984581;28;8868;-80
2023/03/01 05:48:34;;;;;;;;;53.50;49.25;;;;;;;;4982399;28;8980;-80
2023/03/01 05:51:06;;;;;;;;;46.50;43.50;;;;;;;;4983653;28;8972;-80
2023/03/01 05:53:33;;;;;;;;;55.50;49.00;;;;;;;;4984733;28;8936;-79
2023/03/01 05:56:04;;;;;;;;;41.50;41.50;;;;;;;;4991162;28;8863;-80
2023/03/01 05:58:34;;;;;;;;;51.75;46.00;;;;;;;;4987822;28;8866;-80
2023/03/01 06:01:02;;;;;;;;;53.75;47.50;;;;;;;;4993718;28;9013;-80
2023/03/01 06:03:30;;;;;;;;;72.25;58.75;;;;;;;;4988610;28;9411;-79
2023/03/01 06:06:00;;;;;;;;;51.50;45.00;;;;;;;;4992742;28;8862;-80
2023/03/01 06:08:30;;;;;;;;;43.00;42.00;;;;;;;;4990955;28;8912;-81
2023/03/01 06:10:57;;;;;;;;;51.00;45.00;;;;;;;;4992504;28;8945;-80
2023/03/01 06:13:25;;;;;;;;;50.00;44.75;;;;;;;;4993799;28;9691;-81
2023/03/01 06:15:53;;;;;;;;;63.75;54.00;;;;;;;;4989846;28;8880;-80
2023/03/01 06:18:20;;;;;;;;;69.25;58.00;;;;;;;;4988788;28;8872;-82
2023/03/01 06:20:57;;;;;;;;;74.75;61.00;;;;;;;;4990422;28;8855;-82
2023/03/01 06:23:25;;;;;;;;;43.00;41.75;;;;;;;;4995802;28;8995;-82
2023/03/01 06:25:54;;;;;;;;;46.75;44.75;;;;;;;;4977984;28;8861;-78
2023/03/01 06:28:21;;;;;;;;;49.25;43.75;;;;;;;;4976241;28;8866;-81
2023/03/01 06:30:51;;;;;;;;;40.75;39.50;;;;;;;;4972674;28;8893;-78
2023/03/01 06:33:19;;;;;;;;;64.00;54.25;;;;;;;;4976755;28;8869;-82
2023/03/01 06:35:51;;;;;;;;;29.50;26.50;;;;;;;;4977907;28;8861;-80
2023/03/01 06:38:19;;;;;;;;;41.00;40.25;;;;;;;;4976185;28;8885;-77
2023/03/01 06:40:48;;;;;;;;;56.75;48.50;;;;;;;;4973440;28;9581;-81
2023/03/01 06:43:17;;;;;;;;;41.25;37.25;;;;;;;;4976014;28;8892;-75
2023/03/01 06:45:46;;;;;;;;;44.75;43.25;;;;;;;;4986698;28;8855;-76
2023/03/01 06:48:14;;;;;;;;;48.50;44.75;;;;;;;;4974177;28;8904;-75
2023/03/01 06:50:41;;;;;;;;;41.75;41.00;;;;;;;;4974814;28;8849;-76
2023/03/01 06:53:09;;;;;;;;;47.50;43.75;;;;;;;;4973786;28;8819;-75
2023/03/01 06:55:36;;;;;;;;;42.75;41.50;;;;;;;;4972656;28;8949;-75
2023/03/01 06:58:04;;;;;;;;;35.50;35.50;;;;;;;;4976314;28;8869;-75
2023/03/01 07:00:33;;;;;;;;;48.50;45.00;;;;;;;;4972532;28;8888;-74
2023/03/01 07:03:03;;;;;;;;;45.75;43.75;;;;;;;;4973420;28;8882;-74
2023/03/01 07:05:30;;;;;;;;;49.75;45.75;;;;;;;;4977794;28;8912;-74
2023/03/01 07:07:58;;;;;;;;;57.25;45.25;;;;;;;;4978998;28;8895;-75
2023/03/01 07:10:25;;;;;;;;;66.50;55.75;;;;;;;;4978987;28;8889;-74
2023/03/01 07:12:59;;;;;;;;;68.50;57.75;;;;;;;;4984414;28;8839;-79
2023/03/01 07:15:27;;;;;;;;;67.75;57.25;;;;;;;;4980269;28;8903;-73
2023/03/01 07:17:57;;;;;;;;;72.00;57.25;;;;;;;;4981401;28;9769;-73
2023/03/01 07:20:25;;;;;;;;;54.25;47.75;;;;;;;;4976356;28;8857;-74
2023/03/01 07:22:53;;;;;;;;;65.25;53.25;;;;;;;;4982055;28;8889;-74
2023/03/01 07:25:20;;;;;;;;;51.75;47.75;;;;;;;;4972329;28;8878;-74
2023/03/01 07:27:51;;;;;;;;;47.75;46.00;;;;;;;;4965083;28;8877;-73
2023/03/01 07:30:19;;;;;;;;;55.75;49.75;;;;;;;;4980728;28;8944;-74
2023/03/01 07:32:46;;;;;;;;;57.25;50.75;;;;;;;;4973538;28;8890;-74
2023/03/01 07:35:15;;;;;;;;;60.75;53.25;;;;;;;;4961784;28;8874;-73
2023/03/01 07:37:43;;;;;;;;;54.00;48.25;;;;;;;;4987349;28;9667;-74
2023/03/01 07:40:13;;;;;;;;;51.00;47.00;;;;;;;;4978942;28;8850;-74
2023/03/01 07:42:41;;;;;;;;;53.50;48.00;;;;;;;;4978995;28;9086;-74
2023/03/01 07:45:09;;;;;;;;;49.50;46.00;;;;;;;;4978326;28;8892;-74
2023/03/01 07:47:36;;;;;;;;;63.00;52.00;;;;;;;;4977585;28;8865;-72
2023/03/01 07:50:06;;;;;;;;;60.00;50.75;;;;;;;;4980844;28;9698;-74
2023/03/01 07:52:35;;;;;;;;;43.50;43.00;;;;;;;;4974754;28;8922;-72
2023/03/01 07:55:02;;;;;;;;;63.50;55.00;;;;;;;;4978498;28;9003;-74
2023/03/01 07:57:30;;;;;;;;;60.50;52.00;;;;;;;;4979646;28;8869;-73
2023/03/01 07:59:57;;;;;;;;;52.75;47.75;;;;;;;;4964801;28;8881;-74
2023/03/01 08:02:25;;;;;;;;;52.25;47.50;;;;;;;;4977467;28;8873;-73
2023/03/01 08:04:52;;;;;;;;;48.25;45.75;;;;;;;;4976347;28;8864;-73
2023/03/01 08:07:20;;;;;;;;;55.33;48.33;;;;;;;;4979612;28;8978;-73
2023/03/01 08:09:50;;;;;;;;;48.75;43.25;;;;;;;;4974047;28;8822;-74
2023/03/01 08:12:17;;;;;;;;;45.50;43.75;;;;;;;;4974876;28;8897;-72
2023/03/01 08:14:45;;;;;;;;;48.67;43.67;;;;;;;;4974457;28;8910;-72
2023/03/01 08:17:15;;;;;;;;;58.50;51.25;;;;;;;;4973490;28;8909;-73
2023/03/01 08:19:43;;;;;;;;;50.33;44.00;;;;;;;;4976774;28;8878;-73
2023/03/01 08:22:11;;;;;;;;;51.00;43.00;;;;;;;;4980814;28;8870;-74
2023/03/01 08:24:38;;;;;;;;;59.00;48.33;;;;;;;;4975370;28;9325;-73
2023/03/01 08:27:07;;;;;;;;;48.00;44.00;;;;;;;;4973510;28;8870;-74
2023/03/01 08:29:35;;;;;;;;;51.67;44.00;;;;;;;;4972802;28;8873;-74
2023/03/01 08:32:03;;;;;;;;;41.67;41.67;;;;;;;;4975774;28;8905;-73
2023/03/01 08:34:31;;;;;;;;;56.00;46.67;;;;;;;;4974242;28;8881;-73
2023/03/01 08:36:58;;;;;;;;;41.33;39.67;;;;;;;;4976480;28;8877;-72
2023/03/01 08:39:26;;;;;;;;;49.00;43.67;;;;;;;;4973317;28;8864;-72
2023/03/01 08:41:53;;;;;;;;;55.67;45.33;;;;;;;;4977484;28;8900;-72
2023/03/01 08:44:22;;;;;;;;;47.67;42.33;;;;;;;;4980597;28;9670;-73
2023/03/01 08:46:51;;;;;;;;;53.67;47.67;;;;;;;;4979360;28;8861;-73
2023/03/01 08:49:19;;;;;;;;;47.00;42.00;;;;;;;;4974608;28;8860;-73
2023/03/01 08:51:48;;;;;;;;;52.67;44.67;;;;;;;;4973718;28;8881;-73
2023/03/01 08:54:18;;;;;;;;;49.00;46.00;;;;;;;;4977926;28;8865;-73
2023/03/01 08:56:46;;;;;;;;;39.00;39.00;;;;;;;;4979051;28;8861;-79
2023/03/01 08:59:15;;;;;;;;;48.00;40.00;;;;;;;;4984555;28;8932;-73
2023/03/01 09:01:44;;;;;;;;;50.00;42.33;;;;;;;;4975249;28;8861;-73
2023/03/01 09:04:12;;;;;;;;;46.00;42.67;;;;;;;;4977642;28;8966;-73
2023/03/01 09:06:39;;;;;;;;;46.33;40.67;;;;;;;;4980705;28;8889;-74
2023/03/01 09:09:09;;;;;;;;;54.67;42.67;;;;;;;;4980395;28;8857;-73
2023/03/01 09:11:37;;;;;;;;;42.33;40.33;;;;;;;;4980372;28;8886;-73
2023/03/01 09:14:06;;;;;;;;;46.67;42.67;;;;;;;;4974481;28;9701;-73
2023/03/01 09:16:35;;;;;;;;;46.33;40.33;;;;;;;;4957059;28;8876;-73
2023/03/01 09:19:04;;;;;;;;;46.00;42.00;;;;;;;;4976226;28;8976;-73
2023/03/01 09:21:32;;;;;;;;;50.33;41.33;;;;;;;;4976188;28;8863;-73
2023/03/01 09:24:00;;;;;;;;;54.00;44.33;;;;;;;;4974438;28;9645;-74
2023/03/01 09:26:27;;;;;;;;;26.33;23.67;;;;;;;;4973014;28;9647;-73
2023/03/01 09:28:56;;;;;;;;;48.33;42.67;;;;;;;;4971978;28;8881;-74
2023/03/01 09:31:25;;;;;;;;;44.00;38.33;;;;;;;;4979055;28;8909;-73
2023/03/01 09:33:54;;;;;;;;;45.33;38.33;;;;;;;;4970517;28;8861;-73
2023/03/01 09:36:25;;;;;;;;;51.33;42.00;;;;;;;;4977486;28;8893;-72
2023/03/01 09:38:53;;;;;;;;;42.00;39.67;;;;;;;;4974396;28;8987;-73
2023/03/01 09:41:43;;;;;;;;;46.00;37.67;;;;;;;;4976460;28;8876;-73
2023/03/01 09:44:33;;;;;;;;;43.00;39.33;;;;;;;;4977852;28;8996;-73
2023/03/01 09:47:01;;;;;;;;;38.00;37.67;;;;;;;;4981807;28;11646;-72
2023/03/01 09:49:31;;;;;;;;;43.33;39.67;;;;;;;;4980453;28;11791;-73
2023/03/01 09:52:04;;;;;;;;;35.67;35.67;;;;;;;;4975259;28;11667;-73
2023/03/01 09:54:32;;;;;;;;;43.67;40.33;;;;;;;;4975895;28;11652;-72
2023/03/01 09:57:19;;;;;;;;;42.33;35.67;;;;;;;;4977488;28;11646;-75
2023/03/01 10:00:04;;;;;;;;;47.33;41.33;;;;;;;;4978827;28;11730;-73
2023/03/01 10:02:39;;;;;;;;;46.00;38.67;;;;;;;;4974311;28;11640;-73
2023/03/01 10:05:28;;;;;;;;;40.00;37.33;;;;;;;;4974480;28;11701;-73
2023/03/01 10:08:23;;;;;;;;;31.00;25.75;;;;;;;;4978788;28;11654;-72
2023/03/01 10:10:51;;;;;;;;;31.00;30.00;;;;;;;;4959089;28;11644;-72
2023/03/01 10:13:22;;;;;;;;;44.00;40.00;;;;;;;;4975442;28;8931;-72
2023/03/01 10:16:04;;;;;;;;;45.33;39.00;;;;;;;;4973681;28;11622;-72
2023/03/01 10:18:36;;;;;;;;;24.33;24.33;;;;;;;;4974376;28;11790;-72
2023/03/01 10:21:15;;;;;;;;;44.67;40.67;;;;;;;;4975505;28;11610;-72
2023/03/01 10:23:44;;;;;;;;;51.00;44.33;;;;;;;;4972125;28;11632;-72
2023/03/01 10:26:30;;;;;;;;;45.67;38.67;;;;;;;;4981050;28;11629;-74
2023/03/01 10:29:03;;;;;;;;;36.25;35.25;;;;;;;;4973293;28;11640;-74
2023/03/01 10:31:44;;;;;;;;;47.50;34.50;;;;;;;;4981188;28;11625;-74
2023/03/01 10:34:17;;;;;;;;;46.00;38.25;;;;;;;;4973865;28;11689;-76
2023/03/01 10:36:50;;;;;;;;;51.25;39.50;;;;;;;;4973821;28;11673;-70
2023/03/01 10:39:21;;;;;;;;;44.25;38.00;;;;;;;;4976805;28;11675;-74
2023/03/01 10:42:01;;;;;;;;;30.25;29.75;;;;;;;;4975278;28;11639;-75
2023/03/01 10:44:52;;;;;;;;;38.50;36.25;;;;;;;;4978926;28;11643;-74
2023/03/01 10:47:23;;;;;;;;;38.00;36.00;;;;;;;;4972533;28;11722;-73
2023/03/01 10:49:58;;;;;;;;;34.00;34.00;;;;;;;;4976974;28;11639;-75
2023/03/01 10:52:32;;;;;;;;;43.25;39.50;;;;;;;;4978229;28;12018;-75
2023/03/01 10:55:06;;;;;;;;;43.50;38.25;;;;;;;;4983406;28;11629;-75
2023/03/01 10:57:39;;;;;;;;;45.00;39.50;;;;;;;;4988572;28;11731;-76
2023/03/01 11:00:19;;;;;;;;;40.25;38.75;;;;;;;;4973166;28;11767;-74
2023/03/01 11:02:50;;;;;;;;;43.00;37.00;;;;;;;;4980286;28;11689;-76
2023/03/01 11:05:25;;;;;;;;;43.00;37.75;;;;;;;;4976424;28;11739;-75
2023/03/01 11:07:56;;;;;;;;;47.75;38.00;;;;;;;;4975986;28;11661;-75
2023/03/01 11:10:28;;;;;;;;;41.50;39.50;;;;;;;;4973345;28;11801;-76
2023/03/01 11:13:06;;;;;;;;;51.50;42.00;;;;;;;;4974818;28;12523;-76
2023/03/01 11:15:34;;;;;;;;;41.50;35.50;;;;;;;;4972776;28;11633;-75
2023/03/01 11:18:07;;;;;;;;;46.50;38.25;;;;;;;;4975170;28;11669;-75
2023/03/01 11:20:38;;;;;;;;;42.25;39.00;;;;;;;;4973309;28;11728;-75
2023/03/01 11:23:11;;;;;;;;;37.00;29.75;;;;;;;;4976174;28;11759;-75
2023/03/01 11:25:43;;;;;;;;;34.75;31.50;;;;;;;;4976614;28;11105;-76
2023/03/01 11:28:17;;;;;;;;;35.50;35.25;;;;;;;;4975342;28;11643;-76
2023/03/01 11:30:52;;;;;;;;;43.00;37.75;;;;;;;;4971237;28;11636;-75
2023/03/01 11:33:24;;;;;;;;;42.50;39.00;;;;;;;;4975941;28;11865;-76
2023/03/01 11:35:57;;;;;;;;;40.75;38.75;;;;;;;;4975873;28;11627;-74
2023/03/01 11:38:26;;;;;;;;;45.25;38.25;;;;;;;;4974984;28;11633;-75
2023/03/01 11:41:07;;;;;;;;;34.50;31.75;;;;;;;;4977531;28;11639;-76
2023/03/01 11:43:46;;;;;;;;;34.00;29.50;;;;;;;;4975898;28;12447;-74
2023/03/01 11:46:37;;;;;;;;;42.50;38.50;;;;;;;;4975877;28;11634;-76
2023/03/01 11:49:34;;;;;;;;;44.00;39.00;;;;;;;;4973519;28;11620;-75
2023/03/01 11:52:08;;;;;;;;;33.75;33.75;;;;;;;;4976003;28;11715;-76
2023/03/01 11:54:46;;;;;;;;;48.25;39.25;;;;;;;;4975592;28;11749;-74
2023/03/01 11:57:27;;;;;;;;;40.25;36.50;;;;;;;;4981737;28;11639;-79
2023/03/01 12:00:17;;;;;;;;;44.00;37.50;;;;;;;;4980234;28;11660;-74
2023/03/01 12:03:04;;;;;;;;;41.25;37.75;;;;;;;;4977719;28;11733;-80
2023/03/01 12:05:58;;;;;;;;;33.00;33.00;;;;;;;;4978263;28;12390;-79
2023/03/01 12:08:33;;;;;;;;;42.25;39.00;;;;;;;;4979733;28;11589;-80
2023/03/01 12:11:08;;;;;;;;;43.00;37.00;;;;;;;;4977455;28;11600;-81
2023/03/01 12:14:03;;;;;;;;;31.25;31.25;;;;;;;;4977689;28;11617;-84
2023/03/01 12:16:56;;;;;;;;;45.75;38.25;;;;;;;;4982421;28;11573;-78
2023/03/01 12:19:53;;;;;;;;;49.75;42.00;;;;;;;;4978054;28;11767;-81
2023/03/01 12:22:31;;;;;;;;;46.25;37.50;;;;;;;;4979726;28;11698;-79
2023/03/01 12:25:26;;;;;;;;;39.75;35.75;;;;;;;;4977542;28;11634;-76
2023/03/01 12:28:21;;;;;;;;;45.50;37.50;;;;;;;;4986712;28;11676;-77
2023/03/01 12:31:25;;;;;;;;;41.50;37.50;;;;;;;;4981545;28;11655;-77
2023/03/01 12:33:58;;;;;;;;;33.75;33.00;;;;;;;;4984166;28;11747;-78
2023/03/01 12:36:41;;;;;;;;;47.25;40.25;;;;;;;;4981226;28;12676;-77
2023/03/01 12:39:23;;;;;;;;;49.25;40.75;;;;;;;;4982317;28;11644;-78
2023/03/01 12:42:01;;;;;;;;;53.25;43.00;;;;;;;;4966603;28;11593;-75
2023/03/01 12:44:43;;;;;;;;;44.75;38.75;;;;;;;;4983584;28;11641;-75
2023/03/01 12:47:33;;;;;;;;;37.75;35.00;;;;;;;;4991397;28;11605;-79
2023/03/01 12:50:04;;;;;;;;;36.50;33.50;;;;;;;;4991163;28;11686;-79
2023/03/01 12:52:37;;;;;;;;;35.00;32.75;;;;;;;;4981414;28;11568;-77
2023/03/01 12:55:17;;;;;;;;;43.25;37.00;;;;;;;;4985446;28;11592;-79
2023/03/01 12:57:49;;;;;;;;;48.00;38.00;;;;;;;;4992134;28;12372;-79
2023/03/01 13:00:27;;;;;;;;;32.75;31.00;;;;;;;;5004454;28;11677;-77
2023/03/01 13:03:01;;;;;;;;;36.50;35.00;;;;;;;;4986885;28;11570;-78
2023/03/01 13:05:39;;;;;;;;;32.00;30.75;;;;;;;;4987824;28;11654;-77
2023/03/01 13:08:14;;;;;;;;;35.25;34.00;;;;;;;;4988227;28;11639;-77
2023/03/01 13:10:48;;;;;;;;;42.00;35.25;;;;;;;;4978100;28;11632;-77
2023/03/01 13:13:28;;;;;;;;;42.00;36.75;;;;;;;;4986924;28;11577;-78
2023/03/01 13:15:59;;;;;;;;;42.50;37.00;;;;;;;;4989337;28;11766;-78
2023/03/01 13:18:35;;;;;;;;;49.25;40.50;;;;;;;;4986483;28;11605;-77
2023/03/01 13:21:05;;;;;;;;;42.75;37.50;;;;;;;;4987963;28;11793;-77
2023/03/01 13:23:36;;;;;;;;;39.75;34.00;;;;;;;;4987293;28;11617;-77
2023/03/01 13:26:16;;;;;;;;;37.25;34.00;;;;;;;;4994848;28;11545;-77
2023/03/01 13:28:52;;;;;;;;;39.50;36.25;;;;;;;;4990370;28;11591;-76
2023/03/01 13:32:06;;;;;;;;;33.50;31.50;;;;;;;;4984889;28;11692;-78
2023/03/01 13:34:59;;;;;;;;;42.25;34.50;;;;;;;;4982102;28;11590;-77
2023/03/01 13:37:33;;;;;;;;;47.00;37.75;;;;;;;;4978988;28;11728;-76
2023/03/01 13:40:05;;;;;;;;;40.25;35.00;;;;;;;;4982595;28;11567;-77
2023/03/01 13:42:43;;;;;;;;;29.75;27.75;;;;;;;;4990271;28;11587;-78
2023/03/01 13:45:24;;;;;;;;;43.25;37.75;;;;;;;;4982453;28;11671;-78
2023/03/01 13:47:57;;;;;;;;;34.25;31.50;;;;;;;;4983889;28;11583;-77
2023/03/01 13:50:34;;;;;;;;;37.25;34.00;;;;;;;;4984144;28;11667;-78
2023/03/01 13:53:04;;;;;;;;;42.50;35.00;;;;;;;;4980259;28;11516;-78
2023/03/01 13:55:37;;;;;;;;;40.00;34.50;;;;;;;;4982668;28;12524;-78
2023/03/01 13:58:14;;;;;;;;;36.25;34.00;;;;;;;;4982942;28;11654;-76
2023/03/01 14:00:42;;;;;;;;;34.00;33.50;;;;;;;;4980080;28;11600;-77
2023/03/01 14:03:14;;;;;;;;;44.75;39.50;;;;;;;;4984732;28;11466;-78
2023/03/01 14:05:52;;;;;;;;;45.00;35.00;;;;;;;;4973955;28;11724;-78
2023/03/01 14:08:22;;;;;;;;;28.00;28.00;;;;;;;;4979816;28;11666;-77
2023/03/01 14:11:03;;;;;;;;;35.75;34.75;;;;;;;;4980458;28;11654;-78
2023/03/01 14:13:54;;;;;;;;;31.75;29.25;;;;;;;;4987867;28;12389;-78
2023/03/01 14:16:30;;;;;;;;;37.25;33.50;;;;;;;;4988603;28;11551;-78
2023/03/01 14:19:07;;;;;;;;;35.00;34.00;;;;;;;;4987785;28;11693;-77
2023/03/01 14:21:36;;;;;;;;;29.25;27.25;;;;;;;;4981139;28;11692;-77
2023/03/01 14:24:05;;;;;;;;;26.00;26.00;;;;;;;;4991810;28;11645;-78
2023/03/01 14:26:33;;;;;;;;;39.50;36.00;;;;;;;;4988926;28;12145;-77
2023/03/01 14:29:02;;;;;;;;;34.50;32.75;;;;;;;;4981744;28;11577;-78
2023/03/01 14:31:38;;;;;;;;;34.75;33.50;;;;;;;;4988024;28;13643;-78
2023/03/01 14:34:06;;;;;;;;;33.75;31.25;;;;;;;;4984063;28;11570;-77
2023/03/01 14:36:36;;;;;;;;;30.00;29.75;;;;;;;;4987989;28;11345;-77
2023/03/01 14:39:18;;;;;;;;;37.50;31.00;;;;;;;;4988075;28;11576;-78
2023/03/01 14:41:46;;;;;;;;;32.25;32.00;;;;;;;;4998066;28;11639;-78
2023/03/01 14:44:20;;;;;;;;;36.75;34.00;;;;;;;;4989994;28;11567;-78
2023/03/01 14:46:52;;;;;;;;;33.00;31.25;;;;;;;;4989277;28;11561;-78
2023/03/01 14:49:23;;;;;;;;;34.00;32.00;;;;;;;;4990896;28;11594;-78
2023/03/01 14:51:55;;;;;;;;;31.25;29.75;;;;;;;;4983586;28;12074;-77
2023/03/01 14:54:26;;;;;;;;;29.75;26.50;;;;;;;;4985507;28;11690;-78
2023/03/01 14:56:55;;;;;;;;;39.50;35.25;;;;;;;;4985265;28;11731;-77
2023/03/01 14:59:23;;;;;;;;;33.25;30.75;;;;;;;;4987616;28;12412;-77